Flight Track Log - Related Links

Times and Time Zones

All times are in EDT time to prevent confusion due to time zone crossing. See the POT4778 flight status page for this flight to view local times or setup timezone preferences in your user account.

Time Position Orientation Groundspeed Altitude Reporting Facility
EDT Latitude Longitude Course Direction KTS MPH feet Rate Location/Type
Thu 10:22:45 AM 41.4950 -74.1778 280° West 187 215 1,500  Level Boston Center
Thu 10:23:45 AM 41.5025 -74.2361 33° Northeast 187 215 2,600 800 Climbing Boston Center
Thu 10:24:45 AM 41.5553 -74.1906 44° Northeast 175 201 3,100 700 Climbing Boston Center
Thu 10:25:45 AM 41.6106 -74.1200 60° Northeast 226 260 4,000 950 Climbing Boston Center
Thu 10:26:45 AM 41.6514 -74.0236 58° Northeast 276 318 5,000 950 Climbing Boston Center
Thu 10:27:45 AM 41.6922 -73.9358 59° Northeast 300 345 5,900 1,050 Climbing Boston Center
Thu 10:28:45 AM 41.7394 -73.8283 60° Northeast 300 345 7,100 1,150 Climbing Boston Center
Thu 10:29:45 AM 41.7781 -73.7403 61° Northeast 306 352 8,200 1,050 Climbing Boston Center
Thu 10:30:45 AM 41.8231 -73.6297 60° Northeast 306 352 9,200 950 Climbing Boston Center
Thu 10:31:45 AM 41.8617 -73.5383 49° Northeast 306 352 10,100 950 Climbing Boston Center
Thu 10:32:45 AM 41.9250 -73.4389 North 306 352 11,100 900 Climbing Boston Center
Thu 10:33:45 AM 42.0064 -73.4319 North 295 339 11,900 850 Climbing Boston Center
Thu 10:34:45 AM 42.0939 -73.4222 North 305 351 12,800 850 Climbing Boston Center
Thu 10:35:45 AM 42.1858 -73.4122 North 316 364 13,600 800 Climbing Boston Center
Thu 10:36:45 AM 42.2775 -73.4025 North 322 371 14,400 800 Climbing Boston Center
Thu 10:37:45 AM 42.3797 -73.3928 North 334 384 15,200 700 Climbing Boston Center
Thu 10:38:45 AM 42.4736 -73.3831 North 334 384 15,800 700 Climbing Boston Center
Thu 10:39:45 AM 42.5675 -73.3761 North 328 377 16,600 600 Climbing Boston Center
Thu 10:40:45 AM 42.6614 -73.3689 North 334 384 17,000 450 Climbing Boston Center
Thu 10:41:45 AM 42.7594 -73.3592 North 340 391 17,500 550 Climbing Boston Center
Thu 10:42:45 AM 42.8489 -73.3519 North 351 404 18,100 600 Climbing Boston Center
Thu 10:43:45 AM 42.9575 -73.3367 13° North 358 412 18,700 550 Climbing Boston Center
Thu 10:44:45 AM 43.0556 -73.3067 358° North 353 406 19,200 450 Climbing Boston Center
Thu 10:45:45 AM 43.1556 -73.3111 358° North 353 406 19,600 450 Climbing Boston Center
Thu 10:46:45 AM 43.2578 -73.3153 10° North 353 406 20,100 400 Climbing Boston Center
Thu 10:47:45 AM 43.3600 -73.2911 29° Northeast 360 414 20,400 350 Climbing Boston Center
Thu 10:48:45 AM 43.4417 -73.2292 27° Northeast 360 414 20,800 500 Climbing Boston Center
Thu 10:49:45 AM 43.5381 -73.1619 30° Northeast 370 426 21,400 550 Climbing Boston Center
Thu 10:50:45 AM 43.6303 -73.0883 61° Northeast 375 432 21,900 450 Climbing Boston Center
Thu 10:51:45 AM 43.6808 -72.9597 63° Northeast 359 413 22,300 350 Climbing Boston Center
Thu 10:52:45 AM 43.7314 -72.8222 64° Northeast 378 435 22,600 350 Climbing Boston Center
Thu 10:53:45 AM 43.7839 -72.6703 62° Northeast 391 450 23,000 300 Climbing Boston Center
Thu 10:54:45 AM 43.8361 -72.5322 64° Northeast 391 450 23,200 1,000 Climbing Boston Center
Thu 10:55:45 AM 43.8842 -72.3939 64° Northeast 391 450 25,000 350 Climbing Boston Center
Thu 10:56:45 AM 43.9342 -72.2528 65° Northeast 397 457 23,900 -400 Descending Boston Center
Thu 10:57:45 AM 43.9817 -72.1083 64° Northeast 402 463 24,200 300 Climbing Boston Center
Thu 10:58:45 AM 44.0269 -71.9811 68° East 402 463 24,500 350 Climbing Boston Center
Thu 10:59:45 AM 44.0700 -71.8306 65° Northeast 408 470 24,900 250 Climbing Boston Center
Thu 11:00:45 AM 44.1253 -71.6681 67° East 413 475 25,000 50 Climbing Boston Center
Thu 11:01:45 AM 44.1700 -71.5197 64° Northeast 419 482 25,000  Level Boston Center
Thu 11:02:45 AM 44.2250 -71.3625 66° East 424 488 25,000  Level Boston Center
Thu 11:03:45 AM 44.2756 -71.2050 65° Northeast 430 495 25,000  Level Boston Center
Thu 11:04:45 AM 44.3278 -71.0472 66° East 437 503 25,000 50 Level Boston Center
Thu 11:05:45 AM 44.3800 -70.8833 66° East 447 514 25,100  Climbing Boston Center
Thu 11:06:45 AM 44.4319 -70.7192 65° Northeast 452 520 25,000  Descending Boston Center
Thu 11:07:45 AM 44.4856 -70.5575 66° East 452 520 25,100  Climbing Boston Center
Thu 11:08:45 AM 44.5389 -70.3897 66° East 457 526 25,000  Descending Boston Center
Thu 11:09:45 AM 44.5922 -70.2217 66° East 463 533 25,100 50 Climbing Boston Center
Thu 11:10:45 AM 44.6450 -70.0533 66° East 463 533 25,100 -50 Level Boston Center
Thu 11:11:45 AM 44.6978 -69.8847 66° East 463 533 25,000 -50 Descending Boston Center
Thu 11:12:45 AM 44.7500 -69.7186 66° East 463 533 25,000 50 Level Boston Center
Thu 11:13:45 AM 44.7928 -69.5822 66° East 463 533 25,100 50 Climbing Boston Center
Thu 11:14:45 AM 44.8506 -69.3978 66° East 463 533 25,100  Level Boston Center
Thu 11:15:45 AM 44.9042 -69.2250 66° East 463 533 25,100  Level Boston Center
Thu 11:16:45 AM 44.9556 -69.0578 67° East 463 533 25,100 -50 Level Boston Center
Thu 11:17:45 AM 45.0067 -68.8844 67° East 463 533 25,000  Descending Boston Center
Thu 11:18:45 AM 45.0578 -68.7167 66° East 463 533 25,100 50 Climbing Boston Center
Thu 11:19:45 AM 45.1161 -68.5275 67° East 463 533 25,100  Level Boston Center
Thu 11:20:45 AM 45.1664 -68.3564 67° East 463 533 25,100  Level Boston Center
Thu 11:21:45 AM 45.2183 -68.1817 69° East 463 533 25,100 -50 Level Boston Center
Thu 11:22:45 AM 45.2661 -68.0069 67° East 468 539 25,000  Descending Boston Center
Thu 11:23:45 AM 45.3175 -67.8317 59° Northeast 468 539 25,100 300 Climbing Boston Center
Thu 11:24:45 AM 45.3822 -67.6758 52° Northeast 463 533 25,600 508 Climbing Boston Center
Thu 11:25:43 AM 45.4500 -67.5500 18° North 460 529 26,100 500 Climbing Moncton Center
Thu 11:25:45 AM 45.4683 -67.5414 57° Northeast 457 526 26,100 500 Level Boston Center
Thu 11:26:43 AM 45.5333 -67.4000 48° Northeast 450 518 26,600 458 Climbing Moncton Center
Thu 11:27:43 AM 45.6167 -67.2667 51° Northeast 440 506 27,000 200 Climbing Moncton Center
Thu 11:28:43 AM 45.6833 -67.1500 43° Northeast 450 518 27,000  Level Moncton Center
Thu 11:29:43 AM 45.7833 -67.0167 51° Northeast 460 529 27,000  Level Moncton Center
Thu 11:30:43 AM 45.8667 -66.8667 48° Northeast 460 529 27,000  Level Moncton Center
Thu 11:31:43 AM 45.9500 -66.7333 51° Northeast 470 541 27,000  Level Moncton Center
Thu 11:32:43 AM 46.0333 -66.5833 48° Northeast 470 541 27,000  Level Moncton Center
Thu 11:33:43 AM 46.1167 -66.4500 42° Northeast 470 541 27,000  Level Moncton Center
Thu 11:34:43 AM 46.2333 -66.3000 48° Northeast 480 552 27,000  Level Moncton Center
Thu 11:35:43 AM 46.3167 -66.1667 54° Northeast 480 552 27,000  Level Moncton Center
Thu 11:36:43 AM 46.4000 -66.0000 51° Northeast 480 552 27,000  Level Moncton Center
Thu 11:37:43 AM 46.4833 -65.8500 48° Northeast 480 552 27,000  Level Moncton Center
Thu 11:38:43 AM 46.5667 -65.7167 51° Northeast 480 552 27,000  Level Moncton Center
Thu 11:39:43 AM 46.6500 -65.5667 51° Northeast 480 552 27,000  Level Moncton Center
Thu 11:40:43 AM 46.7333 -65.4167 49° Northeast 480 552 27,000  Level Moncton Center
Thu 11:41:43 AM 46.8333 -65.2500 51° Northeast 480 552 27,000  Level Moncton Center
Thu 11:42:43 AM 46.9167 -65.1000 42° Northeast 480 552 27,000  Level Moncton Center
Thu 11:43:43 AM 47.0167 -64.9667 51° Northeast 480 552 27,000  Level Moncton Center
Thu 11:44:43 AM 47.1000 -64.8167 51° Northeast 480 552 27,000  Level Moncton Center
Thu 11:45:43 AM 47.1833 -64.6667 51° Northeast 480 552 27,000  Level Moncton Center
Thu 11:46:43 AM 47.2667 -64.5167 51° Northeast 480 552 27,000  Level Moncton Center
Thu 11:47:43 AM 47.3500 -64.3667 53° Northeast 480 552 27,000  Level Moncton Center
Thu 11:48:43 AM 47.4333 -64.2000 51° Northeast 480 552 27,000  Level Moncton Center
Thu 11:49:43 AM 47.5167 -64.0500 45° Northeast 490 564 27,000  Level Moncton Center
Thu 11:50:43 AM 47.6167 -63.9000 50° Northeast 480 552 27,000  Level Moncton Center
Thu 11:51:43 AM 47.7000 -63.7500 56° Northeast 490 564 27,000  Level Moncton Center
Thu 11:52:43 AM 47.7833 -63.5667 50° Northeast 490 564 27,000  Level Moncton Center
Thu 11:53:43 AM 47.8667 -63.4167 50° Northeast 480 552 27,000  Level Moncton Center
Thu 11:54:43 AM 47.9500 -63.2667 50° Northeast 490 564 27,000  Level Moncton Center
Thu 11:55:43 AM 48.0333 -63.1167 50° Northeast 490 564 27,000  Level Moncton Center
Thu 11:56:43 AM 48.1167 -62.9667 56° Northeast 490 564 27,000  Level Moncton Center
Thu 11:57:43 AM 48.2000 -62.7833 50° Northeast 480 552 27,000  Level Moncton Center
Thu 11:58:43 AM 48.2833 -62.6333 45° Northeast 490 564 27,000  Level Moncton Center
Thu 11:59:43 AM 48.3833 -62.4833 50° Northeast 490 564 27,000  Level Moncton Center
Thu 12:00:43 PM 48.4667 -62.3333 55° Northeast 490 564 27,000  Level Moncton Center
Thu 12:01:43 PM 48.5500 -62.1500 47° Northeast 490 564 27,000  Level Moncton Center
Thu 12:02:43 PM 48.6333 -62.0167 50° Northeast 490 564 27,000  Level Moncton Center
Thu 12:03:43 PM 48.7333 -61.8333 61° Northeast 490 564 27,000 50 Level Moncton Center
Thu 12:04:43 PM 48.8000 -61.6500 56° Northeast 490 564 27,100  Climbing Moncton Center
Thu 12:05:43 PM 48.8667 -61.5000 55° Northeast 490 564 27,000 -50 Descending Moncton Center
Thu 12:06:43 PM 48.9500 -61.3167 55° Northeast 490 564 27,000  Level Moncton Center
Thu 12:07:43 PM 49.0333 -61.1333 59° Northeast 490 564 27,000 50 Level Moncton Center
Thu 12:08:43 PM 49.1000 -60.9667 44° Northeast 500 575 27,100  Climbing Moncton Center
Thu 12:09:43 PM 49.2000 -60.8167 52° Northeast 490 564 27,000  Descending Moncton Center
Thu 12:10:43 PM 49.2833 -60.6500 47° Northeast 490 564 27,100 50 Climbing Moncton Center
Thu 12:11:43 PM 49.3833 -60.4833 56° Northeast 490 564 27,100 -50 Level Moncton Center
Thu 12:12:43 PM 49.4500 -60.3333 52° Northeast 490 564 27,000 -50 Descending Moncton Center
Thu 12:13:43 PM 49.5333 -60.1667 50° Northeast 480 552 27,000  Level Moncton Center
Thu 12:14:43 PM 49.6333 -59.9833 65° Northeast 480 552 27,000  Level Moncton Center
Thu 12:15:43 PM 49.6833 -59.8167 52° Northeast 480 552 27,000  Level Moncton Center
Thu 12:16:43 PM 49.7667 -59.6500 61° Northeast 480 552 27,000  Level Moncton Center
Thu 12:17:43 PM 49.8333 -59.4667 52° Northeast 480 552 27,000 50 Level Moncton Center
Thu 12:18:43 PM 49.9167 -59.3000 60° Northeast 490 564 27,100 50 Climbing Moncton Center
Thu 12:19:43 PM 49.9833 -59.1167 44° Northeast 490 564 27,100 -50 Level Moncton Center
Thu 12:20:43 PM 50.0833 -58.9667 40° Northeast 480 552 27,000 -50 Descending Moncton Center
Thu 12:21:43 PM 50.1833 -58.8333 55° Northeast 490 564 27,000 50 Level Moncton Center
Thu 12:22:43 PM 50.2667 -58.6500 40° Northeast 480 552 27,100 50 Climbing Moncton Center
Thu 12:23:43 PM 50.3667 -58.5167 44° Northeast 490 564 27,100 -50 Level Moncton Center
Thu 12:24:43 PM 50.4667 -58.3667 44° Northeast 490 564 27,000 207 Descending Moncton Center
Thu 12:25:10 PM 50.5000 -58.3167 48° Northeast 490 564 27,400 923 Climbing Gander Center
Thu 12:25:48 PM 50.5667 -58.2000 44° Northeast 480 552 28,000 1,000 Climbing Gander Center
Thu 12:26:10 PM 50.6000 -58.1500 38° Northeast 480 552 28,400 1,100 Climbing Gander Center
Thu 12:26:48 PM 50.6667 -58.0667 52° Northeast 460 529 29,100 367 Climbing Gander Center
Thu 12:27:48 PM 50.7333 -57.9333 46° Northeast 460 529 29,000 -50 Descending Gander Center
Thu 12:28:48 PM 50.8333 -57.7667 41° Northeast 470 541 29,000  Level Gander Center
Thu 12:29:43 PM 50.9167 -57.6500 43° Northeast 470 541 29,000  Level Moncton Center
Thu 12:30:43 PM 51.0167 -57.5000 46° Northeast 480 552 29,000 69 Level Moncton Center
Thu 12:31:10 PM 51.0667 -57.4167 40° Northeast 480 552 29,100 100 Climbing Gander Center
Thu 12:31:43 PM 51.1167 -57.3500 90° East 480 552 29,100  Level Moncton Center
Thu 12:31:48 PM 51.1167 -57.3333 40° Northeast 480 552 29,100 -92 Level Gander Center
Thu 12:32:48 PM 51.2167 -57.2000 46° Northeast 490 564 29,000 -50 Descending Gander Center
Thu 12:33:48 PM 51.3167 -57.0333 54° Northeast 490 564 29,000 50 Level Gander Center
Thu 12:34:48 PM 51.4000 -56.8500 36° Northeast 490 564 29,100  Climbing Gander Center
Thu 12:35:43 PM 51.5000 -56.7333 43° Northeast 490 564 29,000 -52 Descending Moncton Center
Thu 12:36:43 PM 51.6000 -56.5833 40° Northeast 480 552 29,000 69 Level Moncton Center
Thu 12:37:10 PM 51.6500 -56.5167 65° Northeast 490 564 29,100 92 Climbing Gander Center
Thu 12:37:48 PM 51.6833 -56.4000 32° Northeast 480 552 29,100 -100 Level Gander Center
Thu 12:38:10 PM 51.7167 -56.3667 46° Northeast 480 552 29,000 -73 Descending Gander Center
Thu 12:39:10 PM 51.8167 -56.2000 43° Northeast 480 552 29,000 61 Level Gander Center
Thu 12:39:48 PM 51.8833 -56.1000 43° Northeast 490 564 29,100  Climbing Gander Center
Thu 12:40:10 PM 51.9167 -56.0500 48° Northeast 480 552 29,000  Descending Gander Center
Thu 12:41:10 PM 52.0000 -55.9000 47° Northeast 500 575 29,100 65 Climbing Gander Center
Thu 12:41:43 PM 52.0667 -55.7833 43° Northeast 500 575 29,100  Level Moncton Center
Thu 12:42:48 PM 52.1667 -55.6333 43° Northeast 480 552 29,100  Level Gander Center
Thu 12:43:10 PM 52.2000 -55.5833 48° Northeast 490 564 29,100 -73 Level Gander Center
Thu 12:44:10 PM 52.3000 -55.4000 48° Northeast 490 564 29,000 -50 Descending Gander Center
Thu 12:45:10 PM 52.3833 -55.2500 47° Northeast 480 552 29,000  Level Gander Center
Thu 12:45:48 PM 52.4500 -55.1333 31° Northeast 480 552 29,000  Level Gander Center
Thu 12:46:10 PM 52.4833 -55.1000 47° Northeast 480 552 29,000  Level Gander Center
Thu 12:46:48 PM 52.5500 -54.9833 53° Northeast 480 552 29,000 61 Level Gander Center
Thu 12:47:48 PM 52.6333 -54.8000 40° Northeast 490 564 29,100  Climbing Gander Center
Thu 12:48:48 PM 52.7167 -54.6833 39° Northeast 490 564 29,000 -73 Descending Gander Center
Thu 12:49:10 PM 52.7667 -54.6167 65° Northeast 490 564 29,000  Level Gander Center
Thu 12:49:48 PM 52.8000 -54.5000 42° Northeast 490 564 29,000 61 Level Gander Center
Thu 12:50:48 PM 52.9000 -54.3500 48° Northeast 490 564 29,100 50 Climbing Gander Center
Thu 12:51:48 PM 53.0000 -54.1667 45° Northeast 490 564 29,100  Level Gander Center
Thu 12:52:48 PM 53.1000 -54.0000 53° Northeast 490 564 29,100 -50 Level Gander Center
Thu 12:53:48 PM 53.1833 -53.8167 56° Northeast 500 575 29,000 -50 Descending Gander Center
Thu 12:54:48 PM 53.2500 -53.6500 45° Northeast 500 575 29,000 50 Level Gander Center
Thu 12:55:48 PM 53.3500 -53.4833 53° Northeast 490 564 29,100 50 Climbing Gander Center
Thu 12:56:48 PM 53.4333 -53.3000 53° Northeast 490 564 29,100  Level Gander Center
Thu 12:57:48 PM 53.5167 -53.1167 47° Northeast 500 575 29,100  Level Gander Center
Thu 12:58:48 PM 53.6167 -52.9333 55° Northeast 500 575 29,100  Level Gander Center
Thu 12:59:48 PM 53.7000 -52.7333 47° Northeast 500 575 29,100  Level Gander Center
Thu 01:00:48 PM 53.7833 -52.5833 52° Northeast 500 575 29,100  Level Gander Center
Thu 01:01:48 PM 53.8667 -52.4000 50° Northeast 510 587 29,100  Level Gander Center
Thu 01:02:10 PM 53.9167 -52.3000 50° Northeast 510 587 29,100  Level Gander Center
Thu 01:03:10 PM 54.0000 -52.1333 50° Northeast 500 575 29,100  Level Gander Center
Thu 01:03:48 PM 54.0667 -52.0000 52° Northeast 510 587 29,100  Level Gander Center
Thu 01:04:48 PM 54.1500 -51.8167 54° Northeast 510 587 29,100  Level Gander Center
Thu 01:05:48 PM 54.2333 -51.6167 52° Northeast 510 587 29,100 -50 Level Gander Center
Thu 01:06:48 PM 54.3167 -51.4333 54° Northeast 510 587 29,000  Descending Gander Center
Thu 01:07:48 PM 54.4000 -51.2333 49° Northeast 510 587 29,100 73 Climbing Gander Center
Thu 01:08:10 PM 54.4333 -51.1667 41° Northeast 510 587 29,100  Level Gander Center
Thu 01:08:48 PM 54.5000 -51.0667 52° Northeast 510 587 29,100 -61 Level Gander Center
Thu 01:09:48 PM 54.5833 -50.8833 60° Northeast 510 587 29,000 -73 Descending Gander Center
Thu 01:10:10 PM 54.6167 -50.7833 49° Northeast 510 587 29,000 73 Level Gander Center
Thu 01:11:10 PM 54.7000 -50.6167 57° Northeast 500 575 29,100 61 Climbing Gander Center
Thu 01:11:48 PM 54.7500 -50.4833 60° Northeast 500 575 29,100 -61 Level Gander Center
Thu 01:12:48 PM 54.8167 -50.2833 37° Northeast 500 575 29,000 -73 Descending Gander Center
Thu 01:13:10 PM 54.8667 -50.2167 49° Northeast 490 564 29,000  Level Gander Center
Thu 01:13:48 PM 54.9167 -50.1167 39° Northeast 490 564 29,000  Level Gander Center
Thu 01:15:23 PM 55.0000 -50.0000 50° Northeast 505 581 29,000 19 Level ETMS Enhanced Traffic Management System
Thu 02:06:00 PM 59.0000 -40.0000 75° East 477 549 30,000 11 Climbing ETMS Enhanced Traffic Management System
Thu 02:48:00 PM 60.2534 -28.6134 250° West  Level FlightAware Approximate
Thu 02:48:00 PM 60.0000 -30.0000 74° East 451 519 30,000  Level ETMS Enhanced Traffic Management System
Thu 02:49:00 PM 60.2913 -28.3762 80° East  Level FlightAware Approximate
Thu 02:50:00 PM 60.3287 -28.1384 82° East  Level FlightAware Approximate
Thu 02:51:00 PM 60.3657 -27.9001 83° East  Level FlightAware Approximate
Thu 02:52:00 PM 60.4023 -27.6612 86° East  Level FlightAware Approximate
Thu 02:56:00 PM 60.4346 -26.5726 77° East 451 519 30,000  Level FlightAware Transoceanic
Thu 02:57:00 PM 60.4623 -26.3244 77° East 451 519 30,000  Level FlightAware Transoceanic
Thu 02:58:00 PM 60.4894 -26.0758 78° East 451 519 30,000  Level FlightAware Transoceanic
Thu 02:59:00 PM 60.5162 -25.8268 78° East 451 519 30,000  Level FlightAware Transoceanic
Thu 03:00:00 PM 60.5424 -25.5774 78° East 451 519 30,000  Level FlightAware Transoceanic
Thu 03:01:00 PM 60.5682 -25.3275 78° East 451 519 30,000  Level FlightAware Transoceanic
Thu 03:02:00 PM 60.5935 -25.0773 78° East 451 519 30,000  Level FlightAware Transoceanic
Thu 03:03:00 PM 60.6184 -24.8267 79° East 451 519 30,000  Level FlightAware Transoceanic
Thu 03:04:00 PM 60.6427 -24.5757 79° East 451 519 30,000  Level FlightAware Transoceanic
Thu 03:05:00 PM 60.6666 -24.3244 79° East 451 519 30,000  Level FlightAware Transoceanic
Thu 03:06:00 PM 60.6901 -24.0726 79° East 451 519 30,000  Level FlightAware Transoceanic
Thu 03:07:00 PM 60.7130 -23.8205 80° East 451 519 30,000  Level FlightAware Transoceanic
Thu 03:08:00 PM 60.7355 -23.5681 80° East 451 519 30,000  Level FlightAware Transoceanic
Thu 03:09:00 PM 60.7575 -23.3152 80° East 451 519 30,000  Level FlightAware Transoceanic
Thu 03:10:00 PM 60.7791 -23.0621 80° East 451 519 30,000  Level FlightAware Transoceanic
Thu 03:11:00 PM 60.8001 -22.8086 80° East 451 519 30,000  Level FlightAware Transoceanic
Thu 03:12:00 PM 60.8207 -22.5548 81° East 451 519 30,000  Level FlightAware Transoceanic
Thu 03:13:00 PM 60.8408 -22.3006 81° East 451 519 30,000  Level FlightAware Transoceanic
Thu 03:14:00 PM 60.8604 -22.0462 81° East 451 519 30,000  Level FlightAware Transoceanic
Thu 03:15:00 PM 60.8796 -21.7914 81° East 451 519 30,000  Level FlightAware Transoceanic
Thu 03:16:00 PM 60.8982 -21.5364 82° East 451 519 30,000  Level FlightAware Transoceanic
Thu 03:17:00 PM 60.9164 -21.2810 82° East 451 519 30,000  Level FlightAware Transoceanic
Thu 03:18:00 PM 60.9341 -21.0253 82° East 451 519 30,000  Level FlightAware Transoceanic
Thu 03:19:00 PM 60.9513 -20.7694 82° East 451 519 30,000  Level FlightAware Transoceanic
Thu 03:20:00 PM 60.9680 -20.5132 82° East 451 519 30,000  Level FlightAware Transoceanic
Thu 03:21:00 PM 60.9842 -20.2567 74° East 451 519 30,000  Level FlightAware Transoceanic
Thu 03:22:00 PM 61.0177 -20.0114 80° East  Level FlightAware Approximate
Thu 03:23:00 PM 61.0386 -19.7599 80° East  Level FlightAware Approximate
Thu 03:24:00 PM 61.0589 -19.5081 81° East  Level FlightAware Approximate
Thu 03:25:00 PM 61.0788 -19.2560 81° East  Level FlightAware Approximate
Thu 03:26:00 PM 61.0982 -19.0035 81° East  Level FlightAware Approximate
Thu 03:27:00 PM 61.1172 -18.7508 81° East  Level FlightAware Approximate
Thu 03:28:00 PM 61.1357 -18.4978 82° East  Level FlightAware Approximate
Thu 03:29:00 PM 61.1537 -18.2444 82° East  Level FlightAware Approximate
Thu 03:30:00 PM 61.1712 -17.9908 82° East  Level FlightAware Approximate
Thu 03:31:00 PM 61.1882 -17.7369 82° East  Level FlightAware Approximate
Thu 03:32:00 PM 61.2048 -17.4827 82° East  Level FlightAware Approximate
Thu 03:33:00 PM 61.2209 -17.2283 83° East  Level FlightAware Approximate
Thu 03:34:00 PM 61.2365 -16.9736 83° East  Level FlightAware Approximate
Thu 03:35:00 PM 61.2517 -16.7187 83° East  Level FlightAware Approximate
Thu 03:36:00 PM 61.2663 -16.4635 83° East  Level FlightAware Approximate
Thu 03:37:00 PM 61.2805 -16.2081 84° East  Level FlightAware Approximate
Thu 03:38:00 PM 61.2943 -15.9525 84° East  Level FlightAware Approximate
Thu 03:39:00 PM 61.3075 -15.6966 84° East  Level FlightAware Approximate
Thu 03:40:00 PM 61.3202 -15.4405 84° East  Level FlightAware Approximate
Thu 03:41:00 PM 61.3325 -15.1842 84° East  Level FlightAware Approximate
Thu 03:42:00 PM 61.3442 -14.9278 85° East  Level FlightAware Approximate
Thu 03:43:00 PM 61.3555 -14.6711 85° East  Level FlightAware Approximate
Thu 03:44:00 PM 61.3663 -14.4143 85° East  Level FlightAware Approximate
Thu 03:45:00 PM 61.3767 -14.1573 85° East  Level FlightAware Approximate
Thu 03:46:00 PM 61.3865 -13.9001 86° East  Level FlightAware Approximate
Thu 03:47:00 PM 61.3959 -13.6427 86° East  Level FlightAware Approximate
Thu 03:48:00 PM 61.4048 -13.3853 86° East  Level FlightAware Approximate
Thu 03:49:00 PM 61.4131 -13.1276 86° East  Level FlightAware Approximate
Thu 03:50:00 PM 61.4210 -12.8699 86° East  Level FlightAware Approximate
Thu 03:51:00 PM 61.4284 -12.6120 87° East  Level FlightAware Approximate
Thu 03:52:00 PM 61.4354 -12.3539 87° East  Level FlightAware Approximate
Thu 03:53:00 PM 61.4418 -12.0958 87° East  Level FlightAware Approximate
Thu 03:54:00 PM 61.4477 -11.8376 87° East  Level FlightAware Approximate
Thu 03:55:00 PM 61.4532 -11.5793 88° East  Level FlightAware Approximate
Thu 03:56:00 PM 61.4582 -11.3209 88° East  Level FlightAware Approximate
Thu 03:57:00 PM 61.4626 -11.0624 88° East  Level FlightAware Approximate
Thu 03:58:00 PM 61.4666 -10.8038 92° East  Level FlightAware Approximate
Thu 03:59:00 PM 61.4623 -10.5453 92° East  Level FlightAware Approximate
Thu 04:00:00 PM 61.4576 -10.2868 92° East  Level FlightAware Approximate
Thu 04:01:00 PM 61.4523 -10.0285 93° East  Level FlightAware Approximate
Thu 04:02:00 PM 61.4465 -9.7702 93° East  Level FlightAware Approximate
Thu 04:03:00 PM 61.4403 -9.5120 93° East  Level FlightAware Approximate
Thu 04:04:00 PM 61.4336 -9.2539 93° East  Level FlightAware Approximate
Thu 04:05:00 PM 61.4263 -8.9960 93° East  Level FlightAware Approximate
Thu 04:06:00 PM 61.4186 -8.7381 94° East  Level FlightAware Approximate
Thu 04:07:00 PM 61.4104 -8.4804 94° East  Level FlightAware Approximate
Thu 04:08:00 PM 61.4018 -8.2228 94° East  Level FlightAware Approximate
Thu 04:09:00 PM 61.3926 -7.9654 94° East  Level FlightAware Approximate
Thu 04:10:00 PM 61.3829 -7.7082 95° East  Level FlightAware Approximate
Thu 04:11:00 PM 61.3728 -7.4511 95° East  Level FlightAware Approximate
Thu 04:12:00 PM 61.3622 -7.1941 95° East  Level FlightAware Approximate
Thu 04:13:00 PM 61.3511 -6.9374 95° East  Level FlightAware Approximate
Thu 04:14:00 PM 61.3395 -6.6808 95° East  Level FlightAware Approximate
Thu 04:15:00 PM 61.3274 -6.4244 96° East  Level FlightAware Approximate
Thu 04:16:00 PM 61.3148 -6.1683 96° East  Level FlightAware Approximate
Thu 04:17:00 PM 61.3018 -5.9123 96° East  Level FlightAware Approximate
Thu 04:18:00 PM 61.2883 -5.6566 96° East  Level FlightAware Approximate
Thu 04:19:00 PM 61.2743 -5.4011 97° East  Level FlightAware Approximate
Thu 04:20:00 PM 61.2598 -5.1458 97° East  Level FlightAware Approximate
Thu 04:21:00 PM 61.2448 -4.8907 97° East  Level FlightAware Approximate
Thu 04:22:00 PM 61.2294 -4.6359 97° East  Level FlightAware Approximate
Thu 04:23:00 PM 61.2135 -4.3814 98° East  Level FlightAware Approximate
Thu 04:24:00 PM 61.1971 -4.1271 98° East  Level FlightAware Approximate
Thu 04:25:00 PM 61.1802 -3.8730 98° East  Level FlightAware Approximate
Thu 04:26:00 PM 61.1629 -3.6193 98° East  Level FlightAware Approximate
Thu 04:27:00 PM 61.1451 -3.3658 98° East  Level FlightAware Approximate
Thu 04:28:00 PM 61.1268 -3.1127 99° East  Level FlightAware Approximate
Thu 04:29:00 PM 61.1080 -2.8598 99° East  Level FlightAware Approximate
Thu 04:30:00 PM 61.0888 -2.6072 99° East  Level FlightAware Approximate
Thu 04:31:00 PM 61.0691 -2.3550 99° East  Level FlightAware Approximate
Thu 04:32:00 PM 61.0489 -2.1030 100° East  Level FlightAware Approximate
Thu 04:33:00 PM 61.0282 -1.8514 100° East  Level FlightAware Approximate
Thu 04:34:00 PM 61.0071 -1.6001 100° East  Level FlightAware Approximate
Thu 04:35:00 PM 60.9855 -1.3492 100° East  Level FlightAware Approximate
Thu 04:36:00 PM 60.9635 -1.0985 100° East  Level FlightAware Approximate
Thu 04:37:00 PM 60.9410 -0.8483 101° East  Level FlightAware Approximate
Thu 04:38:00 PM 60.9180 -0.5984 102° East  Level FlightAware Approximate
Thu 04:39:00 PM 60.8925 -0.3497 102° East  Level FlightAware Approximate
Thu 04:40:00 PM 60.8666 -0.1014 102° East  Level FlightAware Approximate
Thu 04:41:00 PM 60.8402 0.1464 102° East  Level FlightAware Approximate
Thu 04:42:00 PM 60.8134 0.3939 103° East  Level FlightAware Approximate
Thu 04:43:00 PM 60.7861 0.6409 103° East  Level FlightAware Approximate
Thu 04:44:00 PM 60.7583 0.8876 103° East  Level FlightAware Approximate
Thu 04:45:00 PM 60.7301 1.1337 103° East  Level FlightAware Approximate
Thu 04:46:00 PM 60.7014 1.3795 104° East  Level FlightAware Approximate
Thu 04:47:00 PM 60.6723 1.6248 104° East  Level FlightAware Approximate
Thu 04:48:00 PM 60.6428 1.8697 104° East  Level FlightAware Approximate
Thu 04:49:00 PM 60.6128 2.1141 104° East  Level FlightAware Approximate
Thu 04:50:00 PM 60.5823 2.3580 104° East  Level FlightAware Approximate
Thu 04:51:00 PM 60.5514 2.6015 105° East  Level FlightAware Approximate
Thu 04:52:00 PM 60.5201 2.8445 105° East  Level FlightAware Approximate
Thu 04:53:00 PM 60.4883 3.0871 105° East  Level FlightAware Approximate
Thu 04:54:00 PM 60.4561 3.3292 105° East  Level FlightAware Approximate
Thu 04:55:00 PM 60.4235 3.5707 105° East  Level FlightAware Approximate
Thu 04:56:00 PM 60.3904 3.8119 106° East  Level FlightAware Approximate
Thu 04:57:00 PM 60.3569 4.0525 106° East  Level FlightAware Approximate
Thu 04:58:00 PM 60.3229 4.2926 106° East  Level FlightAware Approximate
Thu 04:59:00 PM 60.2885 4.5322 106° East  Level FlightAware Approximate
Thu 05:00:00 PM 60.2537 4.7713 106° East  Level FlightAware Approximate
Thu 05:01:00 PM 60.2185 5.0099 107° East  Level FlightAware Approximate
Thu 05:02:00 PM 60.1828 5.2480 107° East  Level FlightAware Approximate
Thu 05:03:00 PM 60.1467 5.4855 107° East  Level FlightAware Approximate
Thu 05:04:00 PM 60.1102 5.7225 107° East  Level FlightAware Approximate
Thu 05:05:00 PM 60.0732 5.9591 107° East  Level FlightAware Approximate
Thu 05:06:00 PM 60.0359 6.1950 108° East  Level FlightAware Approximate
Thu 05:07:00 PM 59.9981 6.4305 108° East  Level FlightAware Approximate
Thu 05:08:00 PM 59.9599 6.6654 108° East  Level FlightAware Approximate
Thu 05:09:00 PM 59.9213 6.8997 108° East  Level FlightAware Approximate
Thu 05:10:00 PM 59.8822 7.1335 109° East  Level FlightAware Approximate
Thu 05:11:00 PM 59.8428 7.3668 109° East  Level FlightAware Approximate
Thu 05:12:00 PM 59.8029 7.5995 109° East  Level FlightAware Approximate
Thu 05:13:00 PM 59.7627 7.8316 109° East  Level FlightAware Approximate
Thu 05:14:00 PM 59.7220 8.0632 109° East  Level FlightAware Approximate
Thu 05:15:00 PM 59.6809 8.2942 110° East  Level FlightAware Approximate
Thu 05:16:00 PM 59.6394 8.5246 110° East  Level FlightAware Approximate
Thu 05:17:00 PM 59.5975 8.7545 110° East  Level FlightAware Approximate
Thu 05:18:00 PM 59.5552 8.9838 110° East  Level FlightAware Approximate
Thu 05:19:00 PM 59.5125 9.2125 110° East  Level FlightAware Approximate
Thu 05:20:00 PM 59.4695 9.4407 111° Southeast  Level FlightAware Approximate
Thu 05:21:00 PM 59.4260 9.6682 111° Southeast  Level FlightAware Approximate
Thu 05:22:00 PM 59.3821 9.8952 111° Southeast  Level FlightAware Approximate
Thu 05:23:00 PM 59.3378 10.1216 111° Southeast  Level FlightAware Approximate
Thu 05:24:00 PM 59.2931 10.3474 111° Southeast  Level FlightAware Approximate
Thu 05:25:00 PM 59.2481 10.5725 111° Southeast  Level FlightAware Approximate
Thu 05:26:00 PM 59.2026 10.7971 112° Southeast  Level FlightAware Approximate
Thu 05:27:00 PM 59.1568 11.0211 112° Southeast  Level FlightAware Approximate
Thu 05:28:00 PM 59.1106 11.2445 112° Southeast  Level FlightAware Approximate
Thu 05:29:00 PM 59.0640 11.4673 112° Southeast  Level FlightAware Approximate
Thu 05:30:00 PM 59.0170 11.6895 112° Southeast  Level FlightAware Approximate
Thu 05:31:00 PM 58.9696 11.9111 113° Southeast  Level FlightAware Approximate
Thu 05:32:00 PM 58.9219 12.1320 113° Southeast  Level FlightAware Approximate
Thu 05:33:00 PM 58.8738 12.3524 113° Southeast  Level FlightAware Approximate
Thu 05:34:00 PM 58.8253 12.5721 113° Southeast  Level FlightAware Approximate
Thu 05:35:00 PM 58.7764 12.7912 113° Southeast  Level FlightAware Approximate
Thu 05:36:00 PM 58.7272 13.0097 114° Southeast  Level FlightAware Approximate
Thu 05:37:00 PM 58.6776 13.2276 114° Southeast  Level FlightAware Approximate
Thu 05:38:00 PM 58.6277 13.4449 114° Southeast  Level FlightAware Approximate
Thu 05:39:00 PM 58.5773 13.6615 114° Southeast  Level FlightAware Approximate
Thu 05:40:00 PM 58.5266 13.8775 114° Southeast  Level FlightAware Approximate
Thu 05:41:00 PM 58.4756 14.0929 114° Southeast  Level FlightAware Approximate
Thu 05:42:00 PM 58.4242 14.3077 115° Southeast  Level FlightAware Approximate
Thu 05:43:00 PM 58.3724 14.5218 115° Southeast  Level FlightAware Approximate
Thu 05:44:00 PM 58.3203 14.7353 115° Southeast  Level FlightAware Approximate
Thu 05:45:00 PM 58.2678 14.9482 115° Southeast  Level FlightAware Approximate
Thu 05:46:00 PM 58.2150 15.1604 116° Southeast  Level FlightAware Approximate
Thu 05:47:00 PM 58.1612 15.3715 116° Southeast  Level FlightAware Approximate
Thu 05:48:00 PM 58.1071 15.5819 116° Southeast  Level FlightAware Approximate
Thu 05:49:00 PM 58.0526 15.7917 116° Southeast  Level FlightAware Approximate
Thu 05:50:00 PM 57.9978 16.0009 116° Southeast  Level FlightAware Approximate
Thu 05:51:00 PM 57.9426 16.2094 117° Southeast  Level FlightAware Approximate
Thu 05:52:00 PM 57.8872 16.4173 117° Southeast  Level FlightAware Approximate
Thu 05:53:00 PM 57.8313 16.6245 117° Southeast  Level FlightAware Approximate
Thu 05:54:00 PM 57.7752 16.8311 117° Southeast  Level FlightAware Approximate
Thu 05:55:00 PM 57.7187 17.0371 117° Southeast  Level FlightAware Approximate
Thu 05:56:00 PM 57.6618 17.2424 117° Southeast  Level FlightAware Approximate
Thu 05:57:00 PM 57.6047 17.4470 118° Southeast  Level FlightAware Approximate
Thu 05:58:00 PM 57.5472 17.6510 118° Southeast  Level FlightAware Approximate
Thu 05:59:00 PM 57.4894 17.8544 118° Southeast  Level FlightAware Approximate
Thu 06:00:00 PM 57.4312 18.0571 118° Southeast  Level FlightAware Approximate
Thu 06:01:00 PM 57.3727 18.2592 118° Southeast  Level FlightAware Approximate
Thu 06:02:00 PM 57.3140 18.4606 118° Southeast  Level FlightAware Approximate
Thu 06:03:00 PM 57.2548 18.6614 119° Southeast  Level FlightAware Approximate
Thu 06:04:00 PM 57.1954 18.8616 119° Southeast  Level FlightAware Approximate
Thu 06:05:00 PM 57.1357 19.0611 119° Southeast  Level FlightAware Approximate
Thu 06:06:00 PM 57.0756 19.2599 119° Southeast  Level FlightAware Approximate
Thu 06:07:00 PM 57.0152 19.4581 119° Southeast  Level FlightAware Approximate
Thu 06:08:00 PM 56.9545 19.6557 119° Southeast  Level FlightAware Approximate
Thu 06:09:00 PM 56.8935 19.8526 120° Southeast  Level FlightAware Approximate
Thu 06:10:00 PM 56.8322 20.0489 120° Southeast  Level FlightAware Approximate
Thu 06:11:00 PM 56.7706 20.2445 120° Southeast  Level FlightAware Approximate
Thu 06:12:00 PM 56.7087 20.4395 120° Southeast  Level FlightAware Approximate
Thu 06:13:00 PM 56.6465 20.6339 120° Southeast  Level FlightAware Approximate
Thu 06:14:00 PM 56.5839 20.8276 120° Southeast  Level FlightAware Approximate
Thu 06:15:00 PM 56.5211 21.0206 121° Southeast  Level FlightAware Approximate
Thu 06:16:00 PM 56.4580 21.2131 121° Southeast  Level FlightAware Approximate
Thu 06:17:00 PM 56.3945 21.4049 121° Southeast  Level FlightAware Approximate
Thu 06:18:00 PM 56.3308 21.5960 121° Southeast  Level FlightAware Approximate
Thu 06:19:00 PM 56.2668 21.7865 121° Southeast  Level FlightAware Approximate
Thu 06:20:00 PM 56.2025 21.9764 121° Southeast  Level FlightAware Approximate
Thu 06:21:00 PM 56.1379 22.1656 122° Southeast  Level FlightAware Approximate
Thu 06:22:00 PM 56.0730 22.3542 122° Southeast  Level FlightAware Approximate
Thu 06:23:00 PM 56.0079 22.5422 122° Southeast  Level FlightAware Approximate
Thu 06:24:00 PM 55.9424 22.7295 122° Southeast  Level FlightAware Approximate
Thu 06:25:00 PM 55.8767 22.9162 122° Southeast  Level FlightAware Approximate
Thu 06:26:00 PM 55.8107 23.1023 122° Southeast  Level FlightAware Approximate
Thu 06:27:00 PM 55.7444 23.2877 123° Southeast  Level FlightAware Approximate
Thu 06:28:00 PM 55.6778 23.4725 123° Southeast  Level FlightAware Approximate
Thu 06:29:00 PM 55.6109 23.6567 123° Southeast  Level FlightAware Approximate
Thu 06:30:00 PM 55.5438 23.8402 123° Southeast  Level FlightAware Approximate
Thu 06:31:00 PM 55.4764 24.0231 123° Southeast  Level FlightAware Approximate
Thu 06:32:00 PM 55.4087 24.2054 123° Southeast  Level FlightAware Approximate
Thu 06:33:00 PM 55.3408 24.3871 123° Southeast  Level FlightAware Approximate
Thu 06:34:00 PM 55.2726 24.5681 124° Southeast  Level FlightAware Approximate
Thu 06:35:00 PM 55.2041 24.7485 124° Southeast  Level FlightAware Approximate
Thu 06:36:00 PM 55.1354 24.9283 124° Southeast  Level FlightAware Approximate
Thu 06:37:00 PM 55.0663 25.1075 124° Southeast  Level FlightAware Approximate
Thu 06:38:00 PM 54.9971 25.2861 108° East  Level FlightAware Approximate
Thu 06:39:00 PM 54.9604 25.4790 125° Southeast  Level FlightAware Approximate
Thu 06:40:00 PM 54.8887 25.6542 126° Southeast  Level FlightAware Approximate
Thu 06:41:00 PM 54.8154 25.8270 126° Southeast  Level FlightAware Approximate
Thu 06:42:00 PM 54.7434 26.0011 126° Southeast  Level FlightAware Approximate
Thu 06:43:00 PM 54.6711 26.1746 126° Southeast  Level FlightAware Approximate
Thu 06:44:00 PM 54.5991 26.3481 126° Southeast  Level FlightAware Approximate
Thu 06:45:00 PM 54.5263 26.5203 126° Southeast  Level FlightAware Approximate
Thu 06:46:00 PM 54.4532 26.6919 126° Southeast  Level FlightAware Approximate
Thu 06:47:00 PM 54.3799 26.8629 126° Southeast  Level FlightAware Approximate
Thu 06:48:00 PM 54.3070 27.0340 126° Southeast  Level FlightAware Approximate
Thu 06:49:00 PM 54.2343 27.2051 127° Southeast  Level FlightAware Approximate
Thu 06:50:00 PM 54.1598 27.3737 126° Southeast  Level FlightAware Approximate
Thu 06:51:00 PM 54.0869 27.5431 124° Southeast  Level FlightAware Approximate
Thu 06:52:00 PM 54.0207 27.7129 130° Southeast  Level FlightAware Approximate
Thu 06:53:00 PM 53.9414 27.8734 131° Southeast  Level FlightAware Approximate
Thu 06:54:00 PM 53.8667 28.0167 28° Northeast  Level FlightAware Approximate
Thu 06:55:00 PM 53.9761 28.1143 297° West  Level Estimated
Thu 06:56:00 PM 54.2730 27.1131 127° Southeast  Level FlightAware Approximate
Thu 06:57:00 PM 54.1989 27.2824 127° Southeast  Level FlightAware Approximate
Thu 06:58:00 PM 54.1246 27.4510 127° Southeast  Level FlightAware Approximate
Thu 06:59:00 PM 54.0500 27.6190 127° Southeast  Level FlightAware Approximate
Thu 07:00:00 PM 53.9752 27.7864 128° Southeast  Level FlightAware Approximate
Thu 07:01:00 PM 53.8991 27.9518 110° East  Level FlightAware Approximate
Thu 07:02:00 PM 53.8574 28.1490 290° West  Level Estimated
Thu 07:03:00 PM 53.8991 27.9518 110° East  Level Estimated
Thu 07:04:00 PM 53.8574 28.1490 290° West  Level Estimated
Thu 07:05:00 PM 53.8991 27.9518 130° Southeast  Level Estimated
Thu 07:06:00 PM 53.8667 28.0167 28° Northeast  Level FlightAware Approximate
Thu 07:07:00 PM 53.9761 28.1143 208° Southwest  Level Estimated
Thu 07:08:00 PM 53.8667 28.0167 28° Northeast  Level FlightAware Approximate
Thu 07:09:00 PM 53.9761 28.1143 208° Southwest  Level Estimated
Thu 07:10:00 PM 53.8667 28.0167 28° Northeast  Level FlightAware Approximate
Thu 07:11:00 PM 53.9761 28.1143 208° Southwest  Level Estimated
Thu 07:12:00 PM 53.8667 28.0167 28° Northeast  Level FlightAware Approximate
Thu 07:13:00 PM 53.9761 28.1143 208° Southwest  Level Estimated
Thu 07:14:00 PM 53.8667 28.0167 28° Northeast  Level FlightAware Approximate
Thu 07:15:00 PM 53.9761 28.1143 208° Southwest  Level Estimated
Thu 07:16:00 PM 53.8667 28.0167 28° Northeast  Level FlightAware Approximate
Thu 07:17:00 PM 53.9761 28.1143 208° Southwest  Level Estimated
Thu 07:18:00 PM 53.8667 28.0167 28° Northeast  Level FlightAware Approximate
Thu 07:19:00 PM 53.9761 28.1143 208° Southwest  Level Estimated
Thu 07:20:00 PM 53.8667 28.0167 28° Northeast  Level FlightAware Approximate
Thu 07:21:00 PM 53.9761 28.1143 208° Southwest  Level Estimated
Thu 07:22:00 PM 53.8667 28.0167 208° Southwest  Level FlightAware Approximate

Login

Don't have an account? Register now (free) for customized features, flight alerts, and more!